createdAt,value
2022-09-30T00:00:39.608Z,14.20
2022-09-30T00:03:25.929Z,15.10
2022-09-30T00:06:01.310Z,15.10
2022-09-30T00:08:32.501Z,15.60
2022-09-30T00:11:03.676Z,15.20
2022-09-30T00:13:31.031Z,15.20
2022-09-30T00:18:23.885Z,14.10
2022-09-30T00:20:50.339Z,14.20
2022-09-30T00:23:16.656Z,14.40
2022-09-30T00:25:43.104Z,15.00
2022-09-30T00:28:09.419Z,15.30
2022-09-30T00:30:35.794Z,15.60
2022-09-30T00:33:02.590Z,15.50
2022-09-30T00:35:29.233Z,15.30
2022-09-30T00:37:56.090Z,16.30
2022-09-30T00:40:22.812Z,15.70
2022-09-30T00:42:49.242Z,16.00
2022-09-30T00:45:17.465Z,14.90
2022-09-30T00:47:50.096Z,14.20
2022-09-30T00:50:31.561Z,14.90
2022-09-30T00:53:00.775Z,14.80
2022-09-30T00:55:31.489Z,15.50
2022-09-30T00:57:59.281Z,15.10
2022-09-30T01:00:25.745Z,15.90
2022-09-30T01:02:52.971Z,16.90
2022-09-30T01:05:19.804Z,16.30
2022-09-30T01:07:46.855Z,15.90
2022-09-30T01:10:13.978Z,16.60
2022-09-30T01:12:40.938Z,16.10
2022-09-30T01:15:08.095Z,16.70
2022-09-30T01:17:53.104Z,16.20
2022-09-30T01:20:21.329Z,15.90
2022-09-30T01:23:03.092Z,16.00
2022-09-30T01:25:29.569Z,16.00
2022-09-30T01:27:58.640Z,16.50
2022-09-30T01:30:43.527Z,16.80
2022-09-30T01:33:25.203Z,17.20
2022-09-30T01:36:11.741Z,15.90
2022-09-30T01:38:44.385Z,14.80
2022-09-30T01:41:46.312Z,15.10
2022-09-30T01:44:18.727Z,14.80
2022-09-30T01:46:54.636Z,15.30
2022-09-30T01:49:32.619Z,15.40
2022-09-30T01:52:29.265Z,15.40
2022-09-30T01:55:01.224Z,16.00
2022-09-30T01:57:27.677Z,15.90
2022-09-30T01:59:56.614Z,15.70
2022-09-30T02:02:26.062Z,16.60
2022-09-30T02:04:58.276Z,16.00
2022-09-30T02:07:35.256Z,15.90
2022-09-30T02:12:31.420Z,13.50
2022-09-30T02:14:57.942Z,13.90
2022-09-30T02:17:53.858Z,13.60
2022-09-30T02:20:22.460Z,13.40
2022-09-30T02:22:50.675Z,14.00
2022-09-30T02:25:19.752Z,15.20
2022-09-30T02:27:50.154Z,15.70
2022-09-30T02:30:17.442Z,14.70
2022-09-30T02:35:20.147Z,13.30
2022-09-30T02:37:50.829Z,15.00
2022-09-30T02:40:27.815Z,16.40
2022-09-30T02:42:54.504Z,15.60
2022-09-30T02:45:22.294Z,14.80
2022-09-30T02:48:07.832Z,15.40
2022-09-30T02:50:38.905Z,15.40
2022-09-30T02:53:20.987Z,15.30
2022-09-30T02:56:00.667Z,15.30
2022-09-30T02:58:28.933Z,16.20
2022-09-30T03:00:56.736Z,17.20
2022-09-30T03:03:31.917Z,16.90
2022-09-30T03:05:58.698Z,17.20
2022-09-30T03:08:25.350Z,17.50
2022-09-30T03:10:52.156Z,17.00
2022-09-30T03:13:21.872Z,17.90
2022-09-30T03:16:08.914Z,17.60
2022-09-30T03:18:44.627Z,16.90
2022-09-30T03:21:17.839Z,17.20
2022-09-30T03:23:59.341Z,17.60
2022-09-30T03:26:34.653Z,18.40
2022-09-30T03:29:06.926Z,18.80
2022-09-30T03:31:52.316Z,19.00
2022-09-30T03:34:21.193Z,20.20
2022-09-30T03:37:04.177Z,20.10
2022-09-30T03:39:54.933Z,20.20
2022-09-30T03:42:37.104Z,19.60
2022-09-30T03:45:19.943Z,19.30
2022-09-30T03:47:49.221Z,18.80
2022-09-30T03:50:19.708Z,18.90
2022-09-30T03:52:47.613Z,21.40
2022-09-30T03:57:43.755Z,25.80
2022-09-30T04:00:11.332Z,27.80
2022-09-30T04:02:38.411Z,25.90
2022-09-30T04:05:05.539Z,29.80
2022-09-30T04:07:32.643Z,28.20
2022-09-30T04:09:59.118Z,27.20
2022-09-30T04:12:25.853Z,24.60
2022-09-30T04:14:52.266Z,23.70
2022-09-30T04:17:18.609Z,25.70
2022-09-30T04:19:45.433Z,25.70
2022-09-30T04:22:11.766Z,27.50
2022-09-30T04:24:39.126Z,31.10
2022-09-30T04:27:05.621Z,24.10
2022-09-30T04:29:32.188Z,20.50
2022-09-30T04:31:59.645Z,21.30
2022-09-30T04:34:25.949Z,21.50
2022-09-30T04:36:52.267Z,19.90
2022-09-30T04:39:18.784Z,21.30
2022-09-30T04:41:45.782Z,20.50
2022-09-30T04:44:12.989Z,20.90
2022-09-30T04:46:39.349Z,20.70
2022-09-30T04:49:09.022Z,23.10
2022-09-30T04:51:38.003Z,23.80
2022-09-30T04:54:04.608Z,23.70
2022-09-30T04:56:31.054Z,19.20
2022-09-30T04:58:57.580Z,42.50
2022-09-30T05:01:24.870Z,46.10
2022-09-30T05:03:51.735Z,46.10
2022-09-30T05:06:18.099Z,42.80
2022-09-30T05:08:45.953Z,38.40
2022-09-30T05:11:16.809Z,38.10
2022-09-30T05:13:43.756Z,35.60
2022-09-30T05:16:10.868Z,36.20
2022-09-30T05:18:38.964Z,33.50
2022-09-30T05:21:05.910Z,24.30
2022-09-30T05:23:32.746Z,21.80
2022-09-30T05:26:01.224Z,19.90
2022-09-30T05:28:30.637Z,21.00
2022-09-30T05:30:59.444Z,20.40
2022-09-30T05:33:28.383Z,20.10
2022-09-30T05:35:58.321Z,20.20
2022-09-30T05:38:24.985Z,22.90
2022-09-30T05:40:52.709Z,25.60
2022-09-30T05:43:20.084Z,21.70
2022-09-30T05:48:13.043Z,19.30
2022-09-30T05:50:39.481Z,19.10
2022-09-30T05:53:05.875Z,18.60
2022-09-30T05:55:37.077Z,18.10
2022-09-30T05:58:05.841Z,18.60
2022-09-30T06:00:32.389Z,18.50
2022-09-30T06:03:00.091Z,19.00
2022-09-30T06:05:27.385Z,18.40
2022-09-30T06:07:55.052Z,19.50
2022-09-30T06:10:21.894Z,20.70
2022-09-30T06:12:48.337Z,20.40
2022-09-30T06:15:15.164Z,20.80
2022-09-30T06:17:42.108Z,19.50
2022-09-30T06:20:09.891Z,19.20
2022-09-30T06:22:36.317Z,19.00
2022-09-30T06:25:06.013Z,19.30
2022-09-30T06:27:33.408Z,19.90
2022-09-30T06:30:00.214Z,20.30
2022-09-30T06:32:26.951Z,19.30
2022-09-30T06:34:55.268Z,20.20
2022-09-30T06:37:22.478Z,22.70
2022-09-30T06:39:50.341Z,22.20
2022-09-30T06:42:18.464Z,21.20
2022-09-30T06:44:52.885Z,21.10
2022-09-30T06:47:25.295Z,22.20
2022-09-30T06:49:54.194Z,22.00
2022-09-30T06:52:21.448Z,20.00
2022-09-30T06:54:49.310Z,20.60
2022-09-30T06:57:16.255Z,19.30
2022-09-30T06:59:44.123Z,20.40
2022-09-30T07:02:12.759Z,20.10
2022-09-30T07:04:39.349Z,19.80
2022-09-30T07:07:06.697Z,20.00
2022-09-30T07:11:59.663Z,18.70
2022-09-30T07:14:26.812Z,19.60
2022-09-30T07:16:54.365Z,19.00
2022-09-30T07:19:22.470Z,20.00
2022-09-30T07:21:49.693Z,20.00
2022-09-30T07:24:17.645Z,21.90
2022-09-30T07:26:46.964Z,23.60
2022-09-30T07:29:14.687Z,23.60
2022-09-30T07:31:41.392Z,20.90
2022-09-30T07:34:09.070Z,22.60
2022-09-30T07:36:37.847Z,19.30
2022-09-30T07:39:06.781Z,17.90
2022-09-30T07:41:36.216Z,17.30
2022-09-30T07:44:05.708Z,17.00
2022-09-30T07:46:33.343Z,17.80
2022-09-30T07:49:03.602Z,22.00
2022-09-30T07:51:35.024Z,19.50
2022-09-30T07:54:05.245Z,18.70
2022-09-30T07:56:45.856Z,18.20
2022-09-30T07:59:20.294Z,18.10
2022-09-30T08:01:46.918Z,21.30
2022-09-30T08:04:14.031Z,21.40
2022-09-30T08:06:42.331Z,20.50
2022-09-30T08:09:10.030Z,22.00
2022-09-30T08:11:37.832Z,21.40
2022-09-30T08:14:05.203Z,21.00
2022-09-30T08:18:59.894Z,20.00
2022-09-30T08:21:27.249Z,20.70
2022-09-30T08:26:20.933Z,18.80
2022-09-30T08:28:47.896Z,19.80
2022-09-30T08:31:15.931Z,18.40
2022-09-30T08:33:43.199Z,20.00
2022-09-30T08:36:14.341Z,19.20
2022-09-30T08:38:41.187Z,19.70
2022-09-30T08:41:23.051Z,20.50
2022-09-30T08:43:52.483Z,19.10
2022-09-30T08:46:32.327Z,20.00
2022-09-30T08:49:21.674Z,20.00
2022-09-30T08:51:49.690Z,21.90
2022-09-30T08:54:19.582Z,20.90
2022-09-30T08:56:46.934Z,23.80
2022-09-30T08:59:23.255Z,20.30
2022-09-30T09:01:53.044Z,22.20
2022-09-30T09:04:19.645Z,23.40
2022-09-30T09:06:50.078Z,21.50
2022-09-30T09:09:36.990Z,21.10
2022-09-30T09:14:30.559Z,22.70
2022-09-30T09:17:23.381Z,24.40
2022-09-30T09:19:57.125Z,21.80
2022-09-30T09:22:26.536Z,21.20
2022-09-30T09:24:54.286Z,20.30
2022-09-30T09:27:40.903Z,21.20
2022-09-30T09:30:07.838Z,20.90
2022-09-30T09:32:35.698Z,20.90
2022-09-30T09:35:26.708Z,21.60
2022-09-30T09:38:18.231Z,20.10
2022-09-30T09:40:56.621Z,21.40
2022-09-30T09:43:38.507Z,21.60
2022-09-30T09:46:05.030Z,20.60
2022-09-30T09:48:34.836Z,20.00
2022-09-30T09:51:07.564Z,21.00
2022-09-30T09:53:37.083Z,20.10
2022-09-30T09:56:17.639Z,20.60
2022-09-30T09:59:04.865Z,21.10
2022-09-30T10:01:33.153Z,20.60
2022-09-30T10:04:11.742Z,20.60
2022-09-30T10:06:49.130Z,19.80
2022-09-30T10:09:23.458Z,19.60
2022-09-30T10:11:50.211Z,21.00
2022-09-30T10:14:20.922Z,19.70
2022-09-30T10:16:48.071Z,19.10
2022-09-30T10:19:22.555Z,20.20
2022-09-30T10:21:51.793Z,19.60
2022-09-30T10:24:26.823Z,18.90
2022-09-30T10:26:53.275Z,19.20
2022-09-30T10:29:29.166Z,20.00
2022-09-30T10:31:59.796Z,17.50
2022-09-30T10:34:29.245Z,17.60
2022-09-30T10:36:56.598Z,18.30
2022-09-30T10:39:26.099Z,16.80
2022-09-30T10:42:02.703Z,16.80
2022-09-30T10:44:29.717Z,15.90
2022-09-30T10:47:01.958Z,15.70
2022-09-30T10:49:35.397Z,14.40
2022-09-30T10:52:02.224Z,15.70
2022-09-30T10:54:34.691Z,15.40
2022-09-30T10:57:04.923Z,13.80
2022-09-30T10:59:34.347Z,15.80
2022-09-30T11:02:12.761Z,13.50
2022-09-30T11:04:42.544Z,11.60
2022-09-30T11:07:12.287Z,11.50
2022-09-30T11:09:44.098Z,10.80
2022-09-30T11:12:28.572Z,10.40
2022-09-30T11:15:03.403Z,10.40
2022-09-30T11:17:42.321Z,11.20
2022-09-30T11:20:16.848Z,9.20
2022-09-30T11:23:02.482Z,9.20
2022-09-30T11:25:37.868Z,9.30
2022-09-30T11:28:36.989Z,9.80
2022-09-30T11:31:09.593Z,10.00
2022-09-30T11:33:47.944Z,9.70
2022-09-30T11:36:15.003Z,9.80
2022-09-30T11:38:56.827Z,9.70
2022-09-30T11:41:41.864Z,9.40
2022-09-30T11:44:16.594Z,7.10
2022-09-30T11:46:42.922Z,6.50
2022-09-30T11:49:13.876Z,6.50
2022-09-30T11:51:53.820Z,6.20
2022-09-30T11:54:26.384Z,5.30
2022-09-30T11:56:58.194Z,6.10
2022-09-30T11:59:30.249Z,7.20
2022-09-30T12:01:59.860Z,7.20
2022-09-30T12:04:36.383Z,6.50
2022-09-30T12:07:06.117Z,5.60
2022-09-30T12:09:36.724Z,5.80
2022-09-30T12:12:10.313Z,6.80
2022-09-30T12:14:51.207Z,6.40
2022-09-30T12:17:29.718Z,6.10
2022-09-30T12:19:57.781Z,6.10
2022-09-30T12:22:24.420Z,5.60
2022-09-30T12:24:50.742Z,6.20
2022-09-30T12:27:26.087Z,6.20
2022-09-30T12:30:16.691Z,6.00
2022-09-30T12:32:49.285Z,5.90
2022-09-30T12:35:21.651Z,6.10
2022-09-30T12:38:07.220Z,6.10
2022-09-30T12:40:40.671Z,6.50
2022-09-30T12:43:25.577Z,6.20
2022-09-30T12:46:01.071Z,6.20
2022-09-30T12:48:32.819Z,6.60
2022-09-30T12:51:02.896Z,7.00
2022-09-30T12:53:31.100Z,6.60
2022-09-30T12:56:09.092Z,5.80
2022-09-30T12:58:43.500Z,6.60
2022-09-30T13:01:10.414Z,6.20
2022-09-30T13:03:52.338Z,7.20
2022-09-30T13:06:23.047Z,7.10
2022-09-30T13:09:22.583Z,7.00
2022-09-30T13:11:53.001Z,6.90
2022-09-30T13:14:29.692Z,7.60
2022-09-30T13:17:09.161Z,6.60
2022-09-30T13:19:40.411Z,6.70
2022-09-30T13:22:19.827Z,7.50
2022-09-30T13:25:05.232Z,6.90
2022-09-30T13:27:40.135Z,6.50
2022-09-30T13:30:14.007Z,6.30
2022-09-30T13:32:47.146Z,6.30
2022-09-30T13:35:33.171Z,6.10
2022-09-30T13:38:14.980Z,6.20
2022-09-30T13:41:02.579Z,5.40
2022-09-30T13:43:37.745Z,5.40
2022-09-30T13:46:20.364Z,5.30
2022-09-30T13:48:56.330Z,5.80
2022-09-30T13:51:25.402Z,5.80
2022-09-30T13:53:55.119Z,5.60
2022-09-30T13:56:25.574Z,5.50
2022-09-30T13:59:24.436Z,5.50
2022-09-30T14:02:03.094Z,5.90
2022-09-30T14:04:48.023Z,6.50
2022-09-30T14:07:33.398Z,7.20
2022-09-30T14:10:08.434Z,6.00
2022-09-30T14:12:54.482Z,5.40
2022-09-30T14:15:30.047Z,4.90
2022-09-30T14:18:17.813Z,4.90
2022-09-30T14:21:22.437Z,4.80
2022-09-30T14:23:56.563Z,5.10
2022-09-30T14:26:46.530Z,5.90
2022-09-30T14:29:32.519Z,5.50
2022-09-30T14:31:59.614Z,5.70
2022-09-30T14:34:27.557Z,5.40
2022-09-30T14:39:23.264Z,6.30
2022-09-30T14:41:52.362Z,6.30
2022-09-30T14:44:20.129Z,6.70
2022-09-30T14:46:48.812Z,7.10
2022-09-30T14:49:17.595Z,7.40
2022-09-30T14:51:47.157Z,7.10
2022-09-30T14:54:19.129Z,6.00
2022-09-30T14:56:46.747Z,4.90
2022-09-30T14:59:26.086Z,4.70
2022-09-30T15:01:59.093Z,4.30
2022-09-30T15:04:50.439Z,4.20
2022-09-30T15:07:18.845Z,4.20
2022-09-30T15:09:48.059Z,4.40
2022-09-30T15:12:22.875Z,4.40
2022-09-30T15:14:56.981Z,4.70
2022-09-30T15:17:30.685Z,4.10
2022-09-30T15:19:58.447Z,4.10
2022-09-30T15:24:54.179Z,4.50
2022-09-30T15:32:17.893Z,4.10
2022-09-30T15:34:46.664Z,4.50
2022-09-30T15:37:20.170Z,15.00
2022-09-30T15:40:07.182Z,56.00
2022-09-30T15:42:44.364Z,22.40
2022-09-30T15:45:20.441Z,6.00
2022-09-30T15:47:58.048Z,4.60
2022-09-30T15:50:43.480Z,5.30
2022-09-30T15:53:25.714Z,4.50
2022-09-30T15:55:55.207Z,4.80
2022-09-30T15:58:30.335Z,5.20
2022-09-30T16:01:18.666Z,4.70
2022-09-30T16:03:51.510Z,5.10
2022-09-30T16:06:22.826Z,5.40
2022-09-30T16:08:53.646Z,5.30
2022-09-30T16:11:25.709Z,5.50
2022-09-30T16:13:56.336Z,5.60
2022-09-30T16:16:27.945Z,4.70
2022-09-30T16:18:55.969Z,5.30
2022-09-30T16:21:45.038Z,5.30
2022-09-30T16:24:21.302Z,4.90
2022-09-30T16:26:49.663Z,5.00
2022-09-30T16:29:17.828Z,4.50
2022-09-30T16:31:46.464Z,5.00
2022-09-30T16:34:24.121Z,5.00
2022-09-30T16:36:53.383Z,6.60
2022-09-30T16:39:20.160Z,7.40
2022-09-30T16:41:46.894Z,7.00
2022-09-30T16:44:13.757Z,6.60
2022-09-30T16:46:40.891Z,7.40
2022-09-30T16:49:18.078Z,6.70
2022-09-30T16:51:49.014Z,5.90
2022-09-30T16:54:21.250Z,9.60
2022-09-30T16:56:49.143Z,7.70
2022-09-30T16:59:17.747Z,5.50
2022-09-30T17:01:45.593Z,6.40
2022-09-30T17:04:15.260Z,8.90
2022-09-30T17:06:45.128Z,9.00
2022-09-30T17:09:12.056Z,7.80
2022-09-30T17:11:40.751Z,8.90
2022-09-30T17:14:07.695Z,9.00
2022-09-30T17:16:37.570Z,10.30
2022-09-30T17:19:05.265Z,12.20
2022-09-30T17:21:32.000Z,11.10
2022-09-30T17:23:58.742Z,10.30
2022-09-30T17:26:26.952Z,10.90
2022-09-30T17:28:57.613Z,10.70
2022-09-30T17:31:31.112Z,11.20
2022-09-30T17:33:58.708Z,11.90
2022-09-30T17:36:25.751Z,12.30
2022-09-30T17:38:53.412Z,13.20
2022-09-30T17:41:40.017Z,14.10
2022-09-30T17:44:07.371Z,13.80
2022-09-30T17:46:40.667Z,14.60
2022-09-30T17:49:08.734Z,15.50
2022-09-30T17:51:39.304Z,15.50
2022-09-30T17:54:09.734Z,16.40
2022-09-30T17:56:37.861Z,16.50
2022-09-30T17:59:05.750Z,17.40
2022-09-30T18:01:36.113Z,16.90
2022-09-30T18:04:03.405Z,15.70
2022-09-30T18:06:31.891Z,14.20
2022-09-30T18:09:00.126Z,13.70
2022-09-30T18:11:28.776Z,13.00
2022-09-30T18:13:59.669Z,12.80
2022-09-30T18:16:30.537Z,11.00
2022-09-30T18:19:06.279Z,10.40
2022-09-30T18:21:36.081Z,8.20
2022-09-30T18:24:03.849Z,7.10
2022-09-30T18:29:01.320Z,6.90
2022-09-30T18:31:39.128Z,7.40
2022-09-30T18:34:06.986Z,7.00
2022-09-30T18:36:35.853Z,7.80
2022-09-30T18:39:07.223Z,8.00
2022-09-30T18:41:35.984Z,7.10
2022-09-30T18:44:03.972Z,7.60
2022-09-30T18:46:31.547Z,7.40
2022-09-30T18:48:58.511Z,7.40
2022-09-30T18:51:26.457Z,7.00
2022-09-30T18:53:59.862Z,7.50
2022-09-30T18:56:31.390Z,7.60
2022-09-30T18:59:04.973Z,7.60
2022-09-30T19:01:36.496Z,8.00
2022-09-30T19:04:06.184Z,8.60
2022-09-30T19:06:34.487Z,9.30
2022-09-30T19:09:01.679Z,9.40
2022-09-30T19:11:31.053Z,12.60
2022-09-30T19:14:03.209Z,11.50
2022-09-30T19:16:38.650Z,12.20
2022-09-30T19:19:12.306Z,12.70
2022-09-30T19:21:41.082Z,15.50
2022-09-30T19:24:10.280Z,15.00
2022-09-30T19:26:37.834Z,18.70
2022-09-30T19:29:09.674Z,18.20
2022-09-30T19:31:37.324Z,18.90
2022-09-30T19:34:05.367Z,17.20
2022-09-30T19:36:40.663Z,17.30
2022-09-30T19:39:12.480Z,17.70
2022-09-30T19:41:39.672Z,18.20
2022-09-30T19:44:06.822Z,16.80
2022-09-30T19:46:33.665Z,16.90
2022-09-30T19:49:01.141Z,17.20
2022-09-30T19:51:30.238Z,17.50
2022-09-30T19:54:05.921Z,17.90
2022-09-30T19:56:34.965Z,18.30
2022-09-30T19:59:02.414Z,18.00
2022-09-30T20:01:34.056Z,17.30
2022-09-30T20:04:05.175Z,17.10
2022-09-30T20:06:33.078Z,17.50
2022-09-30T20:09:02.186Z,16.00
2022-09-30T20:11:33.235Z,16.90
2022-09-30T20:14:19.613Z,18.00
2022-09-30T20:16:49.736Z,17.30
2022-09-30T20:19:17.896Z,18.10
2022-09-30T20:21:45.160Z,17.10
2022-09-30T20:24:12.817Z,17.40
2022-09-30T20:26:41.507Z,17.20
2022-09-30T20:29:09.163Z,17.90
2022-09-30T20:31:37.581Z,18.20
2022-09-30T20:34:04.594Z,16.10
2022-09-30T20:39:00.118Z,15.40
2022-09-30T20:41:27.271Z,15.50
2022-09-30T20:43:53.798Z,16.40
2022-09-30T20:48:48.719Z,15.90
2022-09-30T20:51:18.179Z,15.70
2022-09-30T20:53:50.896Z,15.40
2022-09-30T20:56:21.920Z,16.40
2022-09-30T20:58:49.608Z,16.60
2022-09-30T21:01:18.110Z,16.50
2022-09-30T21:03:49.733Z,17.20
2022-09-30T21:06:17.904Z,16.80
2022-09-30T21:08:44.545Z,17.10
2022-09-30T21:11:12.312Z,17.60
2022-09-30T21:13:46.321Z,17.10
2022-09-30T21:16:15.889Z,17.70
2022-09-30T21:18:43.820Z,17.50
2022-09-30T21:23:37.675Z,17.00
2022-09-30T21:26:05.795Z,17.60
2022-09-30T21:28:32.488Z,16.90
2022-09-30T21:30:58.973Z,18.00
2022-09-30T21:33:25.561Z,17.10
2022-09-30T21:36:03.147Z,16.60
2022-09-30T21:38:30.606Z,17.10
2022-09-30T21:43:24.494Z,16.70
2022-09-30T21:46:03.277Z,17.40
2022-09-30T21:48:32.823Z,16.00
2022-09-30T21:51:01.675Z,16.40
2022-09-30T21:53:29.270Z,16.90
2022-09-30T21:55:56.623Z,17.10
2022-09-30T21:58:24.798Z,16.90
2022-09-30T22:00:52.634Z,17.50
2022-09-30T22:03:20.943Z,16.80
2022-09-30T22:05:54.128Z,17.60
2022-09-30T22:08:21.179Z,22.20
2022-09-30T22:10:48.137Z,24.80
2022-09-30T22:13:15.066Z,25.70
2022-09-30T22:15:45.591Z,22.80
2022-09-30T22:18:16.871Z,19.70
2022-09-30T22:20:47.595Z,19.90
2022-09-30T22:23:17.383Z,19.10
2022-09-30T22:25:43.920Z,18.50
2022-09-30T22:28:10.513Z,19.20
2022-09-30T22:30:37.161Z,19.80
2022-09-30T22:33:22.575Z,18.60
2022-09-30T22:36:07.737Z,19.90
2022-09-30T22:38:34.073Z,20.20
2022-09-30T22:41:01.319Z,20.80
2022-09-30T22:43:28.161Z,20.30
2022-09-30T22:46:05.107Z,19.70
2022-09-30T22:50:59.029Z,17.60
2022-09-30T22:53:26.009Z,16.00
2022-09-30T22:58:19.967Z,16.10
2022-09-30T23:00:56.399Z,15.30
2022-09-30T23:03:24.934Z,15.50
2022-09-30T23:05:52.167Z,15.70
2022-09-30T23:08:18.897Z,16.30
2022-09-30T23:10:51.892Z,16.20
2022-09-30T23:13:19.746Z,14.70
2022-09-30T23:15:47.028Z,15.10
2022-09-30T23:18:16.362Z,15.70
2022-09-30T23:20:43.067Z,15.90
2022-09-30T23:23:09.489Z,16.20
2022-09-30T23:25:35.740Z,15.30
2022-09-30T23:28:02.187Z,15.70
2022-09-30T23:30:29.149Z,15.70
2022-09-30T23:32:56.157Z,14.80
2022-09-30T23:35:22.562Z,16.50
2022-09-30T23:37:50.122Z,16.10
2022-09-30T23:40:16.338Z,16.60
2022-09-30T23:42:42.679Z,16.60
2022-09-30T23:45:09.633Z,16.80
2022-09-30T23:47:36.708Z,17.20
2022-09-30T23:50:03.517Z,16.90
2022-09-30T23:52:30.687Z,16.60
2022-09-30T23:54:57.400Z,16.60
2022-09-30T23:57:23.762Z,17.00
2022-09-30T23:59:50.016Z,17.80
